Time;durP1;ratioP1;P1;durP2;ratioP2;P2;SDS_P1;SDS_P2;PMS_P1;PMS_P2;Temp;Humidity;BMP_temperature;BMP_pressure;BME280_temperature;BME280_humidity;BME280_pressure;Samples;Min_cycle;Max_cycle;Signal;HPM_P1;HPM_P2
2021/06/02 00:06:39;;;;;;;0.30;0.30;;;18.60;51.10;;;;;;6279901;22;20510;-80
2021/06/02 00:09:40;;;;;;;0.40;0.40;;;18.60;51.30;;;;;;6281252;22;20042;-80
2021/06/02 00:19:51;;;;;;;0.50;0.50;;;18.40;51.60;;;;;;6146263;23;20017;-80
2021/06/02 00:22:30;;;;;;;0.47;0.47;;;18.50;51.60;;;;;;6092562;23;20018;-78
2021/06/02 00:36:44;;;;;;;0.50;0.43;;;18.30;51.90;;;;;;5926308;24;20020;-78
2021/06/02 00:44:11;;;;;;;0.55;0.55;;;18.30;52.30;;;;;;5874747;24;20489;-79
2021/06/02 00:46:50;;;;;;;1.00;0.90;;;18.20;52.40;;;;;;5820194;24;20038;-78
2021/06/02 00:49:24;;;;;;;0.60;0.50;;;18.20;52.50;;;;;;5802991;24;20139;-78
2021/06/02 00:55:47;;;;;;;0.50;0.50;;;18.10;52.80;;;;;;5760080;24;20436;-79
2021/06/02 00:58:54;;;;;;;0.32;0.32;;;18.00;52.90;;;;;;5711804;25;20461;-78
2021/06/02 01:02:26;;;;;;;0.50;0.50;;;18.00;53.10;;;;;;5695027;24;20064;-78
2021/06/02 01:08:43;;;;;;;0.50;0.50;;;17.90;53.30;;;;;;5689248;25;20039;-79
2021/06/02 01:11:10;;;;;;;0.73;0.57;;;17.90;53.40;;;;;;5708659;25;20477;-78
2021/06/02 01:13:40;;;;;;;1.77;0.57;;;17.80;53.50;;;;;;5786121;24;20023;-78
2021/06/02 01:16:08;;;;;;;0.87;0.70;;;17.80;53.70;;;;;;5939639;24;20021;-78
2021/06/02 01:18:35;;;;;;;0.60;0.60;;;17.80;53.90;;;;;;5944120;24;20070;-79
2021/06/02 01:21:01;;;;;;;0.60;0.60;;;17.70;54.00;;;;;;5917133;24;20028;-80
2021/06/02 01:23:28;;;;;;;0.93;0.80;;;17.80;54.10;;;;;;5919312;24;20469;-79
2021/06/02 01:25:54;;;;;;;1.42;0.80;;;17.70;54.20;;;;;;5928406;24;20040;-79
2021/06/02 01:28:20;;;;;;;1.33;0.75;;;17.70;54.30;;;;;;5911912;23;20027;-78
2021/06/02 01:30:51;;;;;;;0.70;0.68;;;17.70;54.50;;;;;;6010749;23;20020;-78
2021/06/02 01:33:37;;;;;;;0.77;0.60;;;17.70;54.60;;;;;;6209692;22;20016;-78
2021/06/02 01:36:06;;;;;;;0.80;0.70;;;17.60;54.70;;;;;;6222056;22;20004;-79
2021/06/02 01:39:09;;;;;;;0.75;0.75;;;17.60;54.80;;;;;;6196673;22;20055;-78
2021/06/02 01:42:09;;;;;;;0.90;0.90;;;17.60;54.90;;;;;;6255068;22;20106;-78
2021/06/02 01:45:08;;;;;;;1.27;1.00;;;17.70;55.10;;;;;;6289506;22;20511;-81
2021/06/02 01:48:11;;;;;;;0.90;0.80;;;17.50;55.20;;;;;;6248864;22;20022;-78
2021/06/02 01:50:51;;;;;;;0.73;0.73;;;17.50;55.30;;;;;;6250557;22;20011;-78
2021/06/02 01:53:35;;;;;;;0.93;0.82;;;17.50;55.30;;;;;;6234044;22;20066;-80
2021/06/02 01:56:31;;;;;;;0.68;0.68;;;17.40;55.40;;;;;;6227683;22;20017;-82
2021/06/02 01:59:23;;;;;;;0.75;0.70;;;17.40;55.60;;;;;;6306441;22;20004;-79
2021/06/02 02:02:12;;;;;;;0.50;0.50;;;17.40;55.80;;;;;;6305788;22;20007;-81
2021/06/02 02:05:09;;;;;;;0.70;0.70;;;17.40;55.90;;;;;;6256419;22;20007;-79
2021/06/02 02:08:13;;;;;;;0.88;0.73;;;17.40;56.20;;;;;;6253336;22;20017;-79
2021/06/02 02:10:57;;;;;;;0.60;0.60;;;17.20;56.20;;;;;;6275183;22;20015;-79
2021/06/02 02:13:56;;;;;;;0.85;0.63;;;17.20;56.30;;;;;;6279323;22;20013;-79
2021/06/02 02:16:40;;;;;;;0.60;0.60;;;17.30;56.50;;;;;;6253475;22;20098;-79
2021/06/02 02:19:45;;;;;;;0.68;0.68;;;17.30;56.60;;;;;;6229076;22;20011;-79
2021/06/02 02:22:33;;;;;;;0.93;0.60;;;17.30;56.80;;;;;;6237141;22;20143;-78
2021/06/02 02:25:13;;;;;;;0.73;0.70;;;17.20;56.80;;;;;;6227369;22;20095;-79
2021/06/02 02:27:58;;;;;;;0.73;0.73;;;17.20;56.90;;;;;;6306203;22;20015;-79
2021/06/02 02:30:42;;;;;;;0.93;0.70;;;17.10;57.00;;;;;;6255539;22;20007;-79
2021/06/02 02:33:28;;;;;;;0.50;0.50;;;17.20;57.20;;;;;;6254546;22;20018;-80
2021/06/02 02:36:15;;;;;;;0.95;0.60;;;17.10;57.20;;;;;;6232351;22;20030;-80
2021/06/02 02:39:00;;;;;;;0.60;0.60;;;17.10;57.40;;;;;;6259064;22;20011;-81
2021/06/02 02:41:42;;;;;;;0.80;0.70;;;17.10;57.50;;;;;;6253364;22;20104;-81
2021/06/02 02:44:28;;;;;;;1.35;0.82;;;17.00;57.60;;;;;;6254534;22;20018;-81
2021/06/02 02:47:10;;;;;;;0.60;0.57;;;17.00;57.70;;;;;;6255688;22;20018;-80
2021/06/02 02:50:10;;;;;;;1.92;0.70;;;17.00;57.90;;;;;;6251910;22;20004;-80
2021/06/02 02:53:01;;;;;;;0.75;0.70;;;16.90;58.10;;;;;;6260439;22;20458;-81
2021/06/02 02:55:29;;;;;;;;;;;17.00;58.20;;;;;;6253771;22;20084;-81
2021/06/02 02:58:06;;;;;;;1.50;0.70;;;16.90;58.10;;;;;;6253817;22;19980;-81
2021/06/02 03:00:51;;;;;;;0.50;0.50;;;16.90;58.30;;;;;;6228207;22;20039;-81
2021/06/02 03:03:29;;;;;;;0.50;0.50;;;16.90;58.40;;;;;;6250962;22;20015;-81
2021/06/02 03:06:07;;;;;;;1.50;0.60;;;16.70;58.50;;;;;;6228303;22;20026;-81
2021/06/02 03:08:52;;;;;;;0.80;0.70;;;16.80;58.80;;;;;;6226307;22;20007;-82
2021/06/02 03:11:44;;;;;;;0.68;0.68;;;16.60;58.80;;;;;;6255781;22;20324;-81
2021/06/02 03:14:21;;;;;;;1.15;0.70;;;16.60;59.00;;;;;;6257238;22;20532;-80
2021/06/02 03:16:58;;;;;;;0.63;0.63;;;16.60;59.20;;;;;;6250098;22;20007;-82
2021/06/02 03:19:52;;;;;;;0.50;0.50;;;16.60;59.30;;;;;;6229034;22;20007;-81
2021/06/02 03:22:25;;;;;;;0.65;0.65;;;16.60;59.40;;;;;;6235956;22;20199;-81
2021/06/02 03:25:06;;;;;;;0.98;0.70;;;16.50;59.40;;;;;;6250495;22;20088;-81
2021/06/02 03:28:03;;;;;;;0.77;0.70;;;16.50;59.60;;;;;;6228620;22;20045;-80
2021/06/02 03:30:37;;;;;;;0.60;0.60;;;16.40;59.60;;;;;;6256691;22;20466;-80
2021/06/02 03:33:26;;;;;;;1.00;0.77;;;16.40;59.70;;;;;;6246888;22;20061;-81
2021/06/02 03:36:11;;;;;;;1.02;0.90;;;16.30;59.80;;;;;;6230979;22;20089;-81
2021/06/02 03:39:02;;;;;;;0.70;0.70;;;16.40;60.00;;;;;;6251024;22;20429;-81
2021/06/02 03:42:04;;;;;;;0.90;0.82;;;16.40;60.10;;;;;;6251664;22;20016;-79
2021/06/02 03:44:54;;;;;;;0.88;0.85;;;16.30;60.10;;;;;;6276697;22;20018;-81
2021/06/02 03:47:37;;;;;;;0.60;0.60;;;16.40;60.20;;;;;;6229368;22;20007;-79
2021/06/02 03:50:18;;;;;;;0.88;0.80;;;16.30;60.20;;;;;;6249748;22;20086;-79
2021/06/02 03:53:06;;;;;;;1.58;0.80;;;16.30;60.30;;;;;;6228680;22;20666;-79
2021/06/02 03:55:37;;;;;;;1.25;0.80;;;16.40;60.40;;;;;;6251857;22;20007;-80
2021/06/02 03:58:32;;;;;;;0.65;0.65;;;16.30;60.30;;;;;;6202786;22;20021;-80
2021/06/02 04:01:28;;;;;;;0.77;0.70;;;16.40;60.50;;;;;;6246923;22;20484;-80
2021/06/02 04:04:16;;;;;;;1.23;0.88;;;16.40;60.50;;;;;;6257847;22;20061;-80
2021/06/02 04:07:04;;;;;;;1.40;0.90;;;16.40;60.50;;;;;;6252173;22;20068;-80
2021/06/02 04:09:42;;;;;;;2.42;0.98;;;16.40;60.60;;;;;;6230780;22;20008;-81
2021/06/02 04:12:45;;;;;;;1.17;0.98;;;16.40;60.60;;;;;;6250136;22;20011;-80
2021/06/02 04:15:14;;;;;;;0.60;0.60;;;16.40;60.70;;;;;;6278488;22;20015;-81
2021/06/02 04:17:46;;;;;;;1.00;0.90;;;16.50;60.70;;;;;;6227860;22;20374;-80
2021/06/02 04:20:15;;;;;;;0.80;0.80;;;16.30;60.60;;;;;;6248593;22;20031;-79
2021/06/02 04:22:47;;;;;;;0.63;0.63;;;16.40;60.80;;;;;;6222726;22;20095;-80
2021/06/02 04:25:17;;;;;;;0.80;0.77;;;16.40;60.90;;;;;;6228199;22;20339;-80
2021/06/02 04:27:48;;;;;;;0.75;0.70;;;16.50;60.90;;;;;;6252942;22;20462;-80
2021/06/02 04:30:16;;;;;;;0.80;0.68;;;16.40;60.90;;;;;;6247492;22;20015;-79
2021/06/02 04:32:48;;;;;;;1.00;0.90;;;16.50;60.90;;;;;;6222329;22;20015;-80
2021/06/02 04:35:17;;;;;;;1.00;0.90;;;16.50;60.90;;;;;;6251163;22;20060;-79
2021/06/02 04:37:45;;;;;;;1.02;0.80;;;16.60;60.90;;;;;;6229297;22;20072;-80
2021/06/02 04:40:12;;;;;;;1.15;0.80;;;16.60;61.00;;;;;;6249683;22;20012;-80
2021/06/02 04:42:40;;;;;;;0.90;0.82;;;16.60;61.10;;;;;;6203856;22;20015;-79
2021/06/02 04:45:11;;;;;;;0.90;0.70;;;16.60;61.10;;;;;;6225532;22;20007;-80
2021/06/02 04:47:38;;;;;;;;;;;16.70;61.20;;;;;;6254872;22;20011;-79
2021/06/02 04:50:26;;;;;;;0.50;0.50;;;16.70;61.10;;;;;;6253864;22;19913;-80
2021/06/02 04:53:26;;;;;;;1.08;0.80;;;16.70;61.10;;;;;;6254326;22;20045;-80
2021/06/02 04:56:19;;;;;;;0.80;0.70;;;16.80;61.20;;;;;;6260656;22;20031;-80
2021/06/02 04:59:20;;;;;;;0.75;0.63;;;16.70;61.20;;;;;;6244447;22;20061;-81
2021/06/02 05:02:20;;;;;;;0.77;0.73;;;16.80;61.20;;;;;;6279275;22;20011;-80
2021/06/02 05:05:20;;;;;;;0.70;0.70;;;16.80;61.20;;;;;;6287198;22;20014;-81
2021/06/02 05:08:20;;;;;;;0.70;0.70;;;16.90;61.10;;;;;;6222510;22;20051;-81
2021/06/02 05:11:21;;;;;;;0.95;0.85;;;17.00;61.10;;;;;;6219423;22;20095;-81
2021/06/02 05:14:16;;;;;;;1.25;0.90;;;17.00;61.00;;;;;;6214925;22;20098;-81
2021/06/02 05:17:11;;;;;;;0.80;0.70;;;17.10;60.90;;;;;;6226254;22;20023;-80
2021/06/02 05:20:21;;;;;;;1.13;0.90;;;17.20;60.90;;;;;;6226772;22;20011;-81
2021/06/02 05:23:24;;;;;;;1.27;1.00;;;17.30;60.90;;;;;;6273276;22;20062;-79
2021/06/02 05:26:26;;;;;;;1.20;1.00;;;17.30;60.70;;;;;;6226527;22;20034;-75
2021/06/02 05:29:22;;;;;;;0.73;0.73;;;17.40;60.60;;;;;;6273252;22;20023;-75
2021/06/02 05:32:27;;;;;;;0.65;0.65;;;17.60;60.60;;;;;;6273722;22;20015;-76
2021/06/02 05:35:32;;;;;;;1.80;1.08;;;17.60;60.40;;;;;;6228507;22;20008;-75
2021/06/02 05:38:32;;;;;;;1.55;1.10;;;17.80;60.40;;;;;;6233738;22;20026;-75
2021/06/02 05:41:27;;;;;;;1.80;1.02;;;17.90;60.40;;;;;;6278460;22;20011;-75
2021/06/02 05:44:33;;;;;;;1.23;0.90;;;17.90;60.40;;;;;;6306738;22;20052;-74
2021/06/02 05:47:25;;;;;;;0.80;0.80;;;17.90;60.40;;;;;;6257690;22;20043;-75
2021/06/02 05:50:19;;;;;;;1.23;0.90;;;18.00;60.40;;;;;;6306594;22;20003;-75
2021/06/02 05:53:23;;;;;;;1.23;1.00;;;18.10;60.50;;;;;;6306563;22;20446;-75
2021/06/02 05:56:18;;;;;;;1.50;1.20;;;18.10;60.50;;;;;;6306346;22;20014;-76
2021/06/02 05:59:04;;;;;;;1.30;0.85;;;18.10;60.40;;;;;;6278993;22;20098;-76
2021/06/02 06:01:54;;;;;;;1.10;0.88;;;18.20;60.50;;;;;;6279696;22;20011;-76
2021/06/02 06:04:55;;;;;;;2.08;1.00;;;18.30;60.50;;;;;;6257153;22;20011;-76
2021/06/02 06:07:54;;;;;;;1.30;0.95;;;18.30;60.50;;;;;;6303643;22;20065;-76
2021/06/02 06:10:44;;;;;;;0.80;0.80;;;18.40;60.40;;;;;;6277089;22;20019;-76
2021/06/02 06:13:37;;;;;;;1.23;0.80;;;18.40;60.30;;;;;;6305905;22;20007;-81
2021/06/02 06:16:23;;;;;;;0.80;0.80;;;18.50;60.30;;;;;;6278914;22;20011;-82
2021/06/02 06:19:18;;;;;;;0.70;0.70;;;18.60;60.20;;;;;;6256289;22;20078;-82
2021/06/02 06:22:15;;;;;;;0.80;0.80;;;18.70;60.20;;;;;;6277505;22;20426;-82
2021/06/02 06:24:50;;;;;;;0.63;0.63;;;18.80;60.10;;;;;;6278853;22;20022;-82
2021/06/02 06:27:40;;;;;;;1.75;1.00;;;18.90;60.00;;;;;;6229177;22;20011;-83
2021/06/02 06:30:10;;;;;;;0.60;0.60;;;18.90;59.80;;;;;;6233705;22;20011;-82
2021/06/02 06:32:38;;;;;;;1.10;0.80;;;19.10;59.70;;;;;;6282801;22;20012;-81
2021/06/02 06:35:07;;;;;;;0.93;0.85;;;19.30;59.70;;;;;;6307387;22;20030;-80
2021/06/02 06:37:38;;;;;;;1.67;1.00;;;19.30;59.40;;;;;;6278337;22;20023;-81
2021/06/02 06:40:08;;;;;;;1.38;1.10;;;19.50;59.40;;;;;;6310601;22;20007;-82
2021/06/02 06:42:40;;;;;;;0.83;0.80;;;19.60;59.20;;;;;;6287015;22;20078;-82
2021/06/02 06:45:18;;;;;;;0.90;0.90;;;19.70;59.10;;;;;;6310588;22;20007;-80
2021/06/02 06:47:47;;;;;;;1.33;1.00;;;19.90;59.00;;;;;;6309747;22;20085;-78
2021/06/02 06:50:15;;;;;;;1.05;0.85;;;20.00;58.90;;;;;;6280609;22;20003;-76
2021/06/02 06:52:44;;;;;;;0.85;0.77;;;20.10;58.90;;;;;;6306208;22;20015;-76
2021/06/02 06:55:11;;;;;;;0.68;0.68;;;20.20;58.70;;;;;;6276301;22;20003;-75
2021/06/02 06:57:39;;;;;;;0.95;0.82;;;20.40;58.60;;;;;;6307157;22;20012;-76
2021/06/02 07:00:07;;;;;;;1.10;0.80;;;20.50;58.30;;;;;;6279210;22;20015;-75
2021/06/02 07:02:33;;;;;;;1.15;0.90;;;20.70;58.20;;;;;;6306867;22;20007;-74
2021/06/02 07:04:59;;;;;;;1.15;1.00;;;20.80;58.10;;;;;;6279079;22;20043;-75
2021/06/02 07:07:26;;;;;;;1.40;1.02;;;21.00;57.90;;;;;;6279149;22;20022;-75
2021/06/02 07:09:53;;;;;;;1.50;0.82;;;21.20;57.80;;;;;;6306457;22;20007;-74
2021/06/02 07:12:22;;;;;;;0.88;0.82;;;21.40;57.70;;;;;;6306472;22;20416;-74
2021/06/02 07:14:49;;;;;;;1.02;0.88;;;21.50;57.50;;;;;;6281090;22;20003;-80
2021/06/02 07:17:16;;;;;;;0.80;0.80;;;21.80;57.30;;;;;;6280250;22;20007;-80
2021/06/02 07:19:48;;;;;;;0.85;0.80;;;22.00;57.20;;;;;;6257757;22;20086;-80
2021/06/02 07:22:19;;;;;;;1.35;0.90;;;22.10;57.00;;;;;;6283405;22;20057;-82
2021/06/02 07:24:46;;;;;;;;;;;22.30;56.90;;;;;;6256025;22;20054;-81
2021/06/02 07:27:13;;;;;;;1.10;0.90;;;22.50;56.80;;;;;;6259783;22;19918;-80
2021/06/02 07:29:39;;;;;;;1.40;0.98;;;22.70;56.60;;;;;;6280786;22;20014;-77
2021/06/02 07:32:06;;;;;;;1.35;1.10;;;22.90;56.40;;;;;;6289907;22;20007;-77
2021/06/02 07:34:32;;;;;;;0.80;0.80;;;23.10;56.40;;;;;;6282095;22;20010;-76
2021/06/02 07:36:58;;;;;;;0.80;0.80;;;23.20;56.20;;;;;;6279727;22;20015;-81
2021/06/02 07:39:29;;;;;;;1.55;1.10;;;23.30;56.10;;;;;;6280357;22;20104;-82
2021/06/02 07:41:55;;;;;;;1.17;1.00;;;23.50;56.10;;;;;;6280933;22;20011;-80
2021/06/02 07:44:20;;;;;;;2.05;1.25;;;23.60;56.00;;;;;;6279133;22;20007;-80
2021/06/02 07:46:46;;;;;;;1.20;0.95;;;23.70;56.00;;;;;;6282146;22;20061;-80
2021/06/02 07:49:12;;;;;;;1.45;1.15;;;23.90;55.90;;;;;;6259209;22;20003;-79
2021/06/02 07:51:38;;;;;;;1.77;1.10;;;24.10;55.90;;;;;;6279658;22;20010;-80
2021/06/02 07:54:04;;;;;;;1.20;1.10;;;24.10;55.70;;;;;;6253039;22;20012;-79
2021/06/02 07:56:30;;;;;;;1.20;1.10;;;24.30;55.60;;;;;;6317110;22;20008;-78
2021/06/02 07:58:56;;;;;;;1.05;0.90;;;24.50;55.50;;;;;;6266878;22;20015;-78
2021/06/02 08:01:22;;;;;;;0.80;0.80;;;24.70;55.40;;;;;;6236559;22;20014;-80
2021/06/02 08:03:48;;;;;;;1.00;0.90;;;24.90;55.20;;;;;;6255651;22;20097;-79
2021/06/02 08:06:13;;;;;;;1.20;1.10;;;25.10;55.10;;;;;;6272158;22;20019;-78
2021/06/02 08:08:39;;;;;;;1.25;0.95;;;25.20;55.00;;;;;;6254534;22;20056;-81
2021/06/02 08:11:05;;;;;;;1.23;1.10;;;25.30;55.00;;;;;;6254540;22;20034;-80
2021/06/02 08:13:31;;;;;;;1.77;1.40;;;25.40;54.90;;;;;;6279460;22;20007;-80
2021/06/02 08:15:57;;;;;;;1.13;1.08;;;25.50;54.90;;;;;;6279065;22;20018;-80
2021/06/02 08:18:25;;;;;;;1.80;1.40;;;25.70;55.40;;;;;;6256807;22;20031;-79
2021/06/02 08:20:51;;;;;;;1.33;1.10;;;25.70;54.70;;;;;;6271413;22;20443;-80
2021/06/02 08:23:17;;;;;;;1.10;1.00;;;25.70;54.90;;;;;;6229809;22;20309;-79
2021/06/02 08:25:43;;;;;;;1.20;1.05;;;25.90;54.90;;;;;;6258382;22;20096;-77
2021/06/02 08:28:08;;;;;;;1.15;1.05;;;26.00;54.80;;;;;;6292452;22;19998;-79
2021/06/02 08:30:34;;;;;;;1.40;1.17;;;26.10;54.60;;;;;;6290089;22;20004;-80
2021/06/02 08:33:00;;;;;;;1.20;1.10;;;26.30;54.50;;;;;;6311365;22;20343;-76
2021/06/02 08:35:26;;;;;;;1.60;1.20;;;26.40;54.40;;;;;;6290865;22;20014;-79
2021/06/02 08:37:55;;;;;;;1.20;1.00;;;26.60;54.20;;;;;;6283780;22;20439;-79
2021/06/02 08:40:21;;;;;;;1.20;0.90;;;26.70;54.00;;;;;;6254279;22;20011;-79
2021/06/02 08:42:47;;;;;;;1.50;1.00;;;27.00;54.50;;;;;;6229920;22;20060;-80
2021/06/02 08:45:15;;;;;;;1.10;1.00;;;27.10;53.70;;;;;;6278852;22;20015;-78
2021/06/02 08:47:42;;;;;;;0.98;0.88;;;27.10;53.50;;;;;;6229083;22;20020;-78
2021/06/02 08:50:11;;;;;;;1.15;1.00;;;27.20;53.50;;;;;;6307026;22;20031;-79
2021/06/02 08:52:38;;;;;;;1.05;0.95;;;27.30;53.40;;;;;;6256014;22;20010;-79
2021/06/02 08:55:08;;;;;;;1.05;1.00;;;27.50;53.40;;;;;;6282662;22;20025;-79
2021/06/02 08:57:38;;;;;;;0.95;0.95;;;27.50;53.50;;;;;;6280543;22;20007;-78
2021/06/02 09:00:05;;;;;;;1.27;1.13;;;27.60;53.50;;;;;;6281556;22;20007;-79
2021/06/02 09:02:31;;;;;;;1.38;1.00;;;27.70;53.20;;;;;;6257356;22;20011;-79
2021/06/02 09:04:57;;;;;;;1.05;0.75;;;27.80;53.10;;;;;;6281486;22;20062;-77
2021/06/02 09:07:24;;;;;;;1.55;1.20;;;27.90;53.30;;;;;;6289942;22;20011;-77
2021/06/02 09:09:52;;;;;;;1.17;0.88;;;27.90;53.20;;;;;;6292020;22;20011;-80
2021/06/02 09:12:35;;;;;;;1.20;1.10;;;28.10;53.10;;;;;;6242188;22;20458;-79
2021/06/02 09:15:19;;;;;;;0.98;0.80;;;28.30;52.70;;;;;;6261124;22;20019;-80
2021/06/02 09:18:04;;;;;;;0.80;0.80;;;28.40;52.50;;;;;;6253253;22;20079;-77
2021/06/02 09:20:37;;;;;;;1.00;0.85;;;28.40;52.70;;;;;;6321733;22;20007;-77
2021/06/02 09:23:34;;;;;;;1.20;0.90;;;28.60;52.60;;;;;;6237377;22;20013;-77
2021/06/02 09:26:26;;;;;;;0.93;0.77;;;28.50;52.40;;;;;;6312585;22;20015;-79
2021/06/02 09:29:12;;;;;;;2.15;0.90;;;28.50;52.80;;;;;;6316286;22;20014;-77
2021/06/02 09:31:40;;;;;;;0.80;0.80;;;28.50;52.60;;;;;;6295954;22;20007;-77
2021/06/02 09:34:26;;;;;;;0.90;0.90;;;28.60;52.50;;;;;;6287360;22;20017;-77
2021/06/02 09:37:02;;;;;;;0.80;0.80;;;28.70;52.30;;;;;;6248491;22;20015;-81
2021/06/02 09:39:27;;;;;;;0.70;0.68;;;28.80;52.40;;;;;;6265070;22;20007;-76
2021/06/02 09:41:57;;;;;;;0.70;0.70;;;29.00;52.20;;;;;;6308171;22;20312;-76
2021/06/02 09:44:26;;;;;;;1.15;0.90;;;29.10;51.90;;;;;;6258908;22;20037;-76
2021/06/02 09:47:07;;;;;;;0.57;0.57;;;29.30;52.00;;;;;;6306862;22;20427;-76
2021/06/02 09:49:48;;;;;;;1.05;0.70;;;29.20;51.80;;;;;;6306718;22;20003;-77
2021/06/02 09:52:17;;;;;;;0.60;0.60;;;29.40;51.50;;;;;;6306532;22;20031;-77
2021/06/02 09:55:10;;;;;;;0.70;0.70;;;29.50;51.50;;;;;;6251891;22;20012;-78
2021/06/02 09:57:36;;;;;;;0.85;0.75;;;29.60;51.20;;;;;;6279005;22;20094;-77
2021/06/02 10:00:04;;;;;;;0.52;0.52;;;29.70;51.30;;;;;;6253715;22;20003;-75
2021/06/02 10:02:29;;;;;;;0.70;0.70;;;29.70;51.10;;;;;;6287333;22;19996;-76
2021/06/02 10:05:08;;;;;;;0.73;0.60;;;29.70;51.10;;;;;;6304700;22;20018;-75
2021/06/02 10:07:44;;;;;;;0.60;0.60;;;29.80;51.10;;;;;;6307116;22;20015;-78
2021/06/02 10:10:13;;;;;;;1.13;0.70;;;29.90;51.00;;;;;;6256980;22;20283;-79
2021/06/02 10:12:55;;;;;;;0.55;0.55;;;29.90;50.90;;;;;;6301060;22;20010;-80
2021/06/02 10:15:28;;;;;;;0.70;0.70;;;30.00;51.30;;;;;;6315949;22;20447;-80
2021/06/02 10:17:54;;;;;;;0.60;0.60;;;30.10;50.30;;;;;;6265784;22;20053;-81
2021/06/02 10:20:20;;;;;;;0.55;0.55;;;30.10;50.30;;;;;;6277752;22;20010;-81
2021/06/02 10:22:59;;;;;;;0.65;0.50;;;30.10;50.10;;;;;;6253973;22;20007;-80
2021/06/02 10:25:27;;;;;;;0.70;0.70;;;30.30;49.70;;;;;;6278093;22;20017;-81
2021/06/02 10:27:55;;;;;;;1.05;0.57;;;30.20;49.70;;;;;;6279092;22;20017;-80
2021/06/02 10:30:23;;;;;;;0.80;0.80;;;30.20;49.60;;;;;;6255778;22;20008;-80
2021/06/02 10:32:51;;;;;;;0.95;0.70;;;30.40;49.50;;;;;;6254716;22;20003;-79
2021/06/02 10:35:17;;;;;;;0.70;0.70;;;30.30;49.40;;;;;;6278716;22;20406;-79
2021/06/02 10:37:44;;;;;;;1.25;0.70;;;30.30;49.30;;;;;;6303013;22;20034;-79
2021/06/02 10:40:23;;;;;;;0.73;0.73;;;30.30;49.20;;;;;;6279113;22;20117;-79
2021/06/02 10:43:11;;;;;;;0.73;0.70;;;30.50;48.90;;;;;;6251765;22;20012;-78
2021/06/02 10:46:01;;;;;;;0.70;0.70;;;30.30;49.00;;;;;;6306241;22;20457;-79
2021/06/02 10:48:41;;;;;;;0.73;0.73;;;30.30;49.20;;;;;;6306079;22;20011;-79
2021/06/02 10:51:27;;;;;;;0.60;0.60;;;30.20;49.20;;;;;;6306424;22;20041;-79
2021/06/02 10:54:16;;;;;;;0.55;0.55;;;30.40;49.20;;;;;;6306060;22;20007;-79
2021/06/02 10:57:14;;;;;;;0.60;0.60;;;30.30;49.00;;;;;;6277422;22;20021;-80
2021/06/02 10:59:45;;;;;;;0.70;0.60;;;30.50;48.70;;;;;;6256370;22;20011;-80
2021/06/02 11:02:14;;;;;;;0.60;0.52;;;30.60;48.50;;;;;;6278797;22;20351;-81
2021/06/02 11:04:42;;;;;;;0.57;0.57;;;30.40;48.20;;;;;;6306174;22;20003;-80
2021/06/02 11:07:20;;;;;;;0.73;0.73;;;30.50;48.20;;;;;;6253423;22;20025;-81
2021/06/02 11:10:12;;;;;;;0.60;0.60;;;30.40;48.00;;;;;;6307011;22;20003;-81
2021/06/02 11:13:01;;;;;;;1.02;0.70;;;30.30;47.90;;;;;;6306431;22;20007;-80
2021/06/02 11:15:45;;;;;;;0.60;0.60;;;30.30;48.10;;;;;;6306217;22;20011;-80
2021/06/02 11:18:21;;;;;;;0.50;0.50;;;30.20;48.20;;;;;;6252002;22;20090;-80
2021/06/02 11:20:58;;;;;;;0.50;0.50;;;30.00;48.30;;;;;;6253182;22;20308;-79
2021/06/02 11:23:32;;;;;;;0.70;0.70;;;30.00;48.40;;;;;;6309474;22;20037;-80
2021/06/02 11:26:30;;;;;;;0.52;0.50;;;29.80;48.10;;;;;;6306170;22;20058;-79
2021/06/02 11:28:55;;;;;;;0.60;0.60;;;29.60;48.30;;;;;;6279131;22;20104;-79
2021/06/02 11:31:31;;;;;;;0.60;0.60;;;29.40;48.20;;;;;;6253856;22;20078;-79
2021/06/02 11:34:26;;;;;;;0.60;0.60;;;29.30;48.40;;;;;;6310079;22;20431;-79
2021/06/02 11:37:07;;;;;;;0.60;0.60;;;29.30;48.40;;;;;;6267561;22;20011;-79
2021/06/02 11:39:36;;;;;;;0.57;0.57;;;29.40;48.20;;;;;;6310519;22;20008;-78
2021/06/02 11:42:04;;;;;;;0.50;0.50;;;29.50;48.00;;;;;;6289989;22;20042;-77
2021/06/02 11:44:31;;;;;;;0.65;0.52;;;29.60;47.50;;;;;;6267053;22;20055;-78
2021/06/02 11:46:57;;;;;;;0.60;0.60;;;29.60;47.40;;;;;;6318910;22;20149;-77
2021/06/02 11:49:31;;;;;;;0.50;0.50;;;29.60;47.10;;;;;;6294467;22;20007;-76
2021/06/02 11:52:07;;;;;;;0.40;0.40;;;29.70;46.80;;;;;;6317020;22;20011;-77
2021/06/02 11:54:49;;;;;;;0.77;0.70;;;29.70;46.60;;;;;;6232729;22;20007;-79
2021/06/02 11:57:31;;;;;;;0.65;0.65;;;29.70;46.30;;;;;;6327527;22;19992;-78
2021/06/02 11:59:58;;;;;;;0.47;0.47;;;29.70;46.30;;;;;;6318917;22;20033;-76
2021/06/02 12:02:24;;;;;;;0.90;0.60;;;29.80;46.40;;;;;;6266398;22;20095;-77
2021/06/02 12:04:50;;;;;;;1.00;0.77;;;29.80;46.30;;;;;;6300307;22;20014;-78
2021/06/02 12:07:28;;;;;;;0.88;0.85;;;29.60;46.30;;;;;;6256091;22;20043;-76
2021/06/02 12:09:57;;;;;;;0.63;0.63;;;29.30;46.50;;;;;;6313108;22;20366;-76
2021/06/02 12:12:24;;;;;;;0.70;0.70;;;29.00;47.00;;;;;;6283545;22;20008;-79
2021/06/02 12:14:58;;;;;;;0.80;0.80;;;29.00;47.20;;;;;;6232977;22;20004;-77
2021/06/02 12:17:29;;;;;;;0.57;0.57;;;29.10;47.10;;;;;;6226681;22;20018;-77
2021/06/02 12:19:56;;;;;;;1.20;0.55;;;29.10;46.90;;;;;;6259246;22;20015;-77
2021/06/02 12:22:23;;;;;;;0.50;0.50;;;29.20;46.90;;;;;;6254953;22;20011;-77
2021/06/02 12:25:18;;;;;;;0.50;0.40;;;29.20;46.90;;;;;;6309236;22;20334;-79
2021/06/02 12:27:48;;;;;;;0.52;0.52;;;29.30;46.80;;;;;;6311267;22;20018;-78
2021/06/02 12:30:27;;;;;;;0.50;0.50;;;29.40;46.80;;;;;;6269363;22;20089;-78
2021/06/02 12:33:04;;;;;;;0.65;0.65;;;29.30;46.60;;;;;;6254194;22;20452;-78
2021/06/02 12:35:33;;;;;;;3.30;0.70;;;29.20;46.70;;;;;;6269705;22;19999;-78
2021/06/02 12:38:17;;;;;;;0.60;0.60;;;29.20;46.60;;;;;;6291751;22;20061;-79
2021/06/02 12:40:46;;;;;;;0.60;0.50;;;29.20;46.40;;;;;;6255578;22;20013;-78
2021/06/02 12:43:17;;;;;;;0.52;0.50;;;29.20;46.60;;;;;;6277660;22;20447;-76
2021/06/02 12:45:45;;;;;;;0.60;0.50;;;29.10;46.70;;;;;;6309042;22;20086;-79
2021/06/02 12:48:14;;;;;;;0.50;0.50;;;29.10;46.70;;;;;;6250694;22;20439;-76
2021/06/02 12:50:44;;;;;;;0.60;0.60;;;28.90;46.70;;;;;;6305708;22;20030;-77
2021/06/02 12:53:11;;;;;;;0.50;0.50;;;28.80;46.90;;;;;;6305891;22;20011;-78
2021/06/02 12:55:39;;;;;;;0.70;0.70;;;28.80;47.00;;;;;;6306405;22;20312;-79
2021/06/02 12:58:09;;;;;;;0.40;0.40;;;28.90;46.90;;;;;;6306650;22;20068;-79
2021/06/02 13:00:39;;;;;;;0.40;0.40;;;29.00;47.00;;;;;;6278274;22;20033;-79
2021/06/02 13:03:05;;;;;;;0.70;0.70;;;28.90;46.50;;;;;;6277841;22;20089;-78
2021/06/02 13:05:30;;;;;;;0.52;0.52;;;29.00;46.60;;;;;;6279208;22;20018;-78
2021/06/02 13:08:07;;;;;;;0.60;0.60;;;29.00;46.40;;;;;;6306603;22;20015;-79
2021/06/02 13:10:35;;;;;;;0.65;0.65;;;29.00;46.20;;;;;;6279650;22;20098;-78
2021/06/02 13:13:03;;;;;;;0.60;0.60;;;28.90;46.10;;;;;;6236651;22;20047;-78
2021/06/02 13:15:34;;;;;;;0.70;0.70;;;28.80;46.00;;;;;;6285883;22;20004;-78
2021/06/02 13:18:01;;;;;;;0.63;0.63;;;28.70;46.10;;;;;;6297991;22;20415;-78
2021/06/02 13:20:40;;;;;;;0.60;0.60;;;28.70;46.10;;;;;;6314182;22;20094;-77
2021/06/02 13:23:08;;;;;;;0.57;0.57;;;28.70;46.10;;;;;;6284290;22;20496;-78
2021/06/02 13:25:34;;;;;;;0.77;0.77;;;28.70;46.00;;;;;;6311801;22;20368;-78
2021/06/02 13:28:01;;;;;;;0.70;0.70;;;28.70;45.80;;;;;;6252326;22;20015;-77
2021/06/02 13:30:43;;;;;;;0.50;0.50;;;28.70;45.70;;;;;;6306975;22;20420;-77
2021/06/02 13:33:10;;;;;;;0.60;0.60;;;28.70;45.60;;;;;;6253121;22;20007;-76
2021/06/02 13:35:36;;;;;;;0.70;0.70;;;28.50;45.70;;;;;;6280393;22;20067;-78
2021/06/02 13:38:02;;;;;;;0.68;0.68;;;28.50;45.70;;;;;;6281480;22;20090;-76
2021/06/02 13:40:34;;;;;;;0.52;0.52;;;28.50;45.90;;;;;;6308353;22;20037;-79
2021/06/02 13:43:15;;;;;;;0.57;0.57;;;28.50;45.80;;;;;;6278936;22;20064;-77
2021/06/02 13:45:49;;;;;;;0.68;0.65;;;28.50;45.80;;;;;;6261184;22;20019;-77
2021/06/02 13:48:36;;;;;;;0.70;0.70;;;28.40;45.70;;;;;;6250130;22;20011;-78
2021/06/02 13:51:25;;;;;;;1.52;0.80;;;28.40;45.50;;;;;;6234892;22;20138;-77
2021/06/02 13:54:10;;;;;;;0.60;0.60;;;28.40;45.50;;;;;;6291043;22;20007;-77
2021/06/02 13:56:57;;;;;;;0.60;0.60;;;28.40;45.60;;;;;;6257718;22;20033;-77
2021/06/02 13:59:36;;;;;;;0.60;0.60;;;28.40;45.40;;;;;;6273756;22;20011;-79
2021/06/02 14:02:05;;;;;;;0.50;0.50;;;28.40;45.40;;;;;;6299497;22;20011;-78
2021/06/02 14:04:31;;;;;;;0.60;0.60;;;28.40;45.50;;;;;;6278979;22;20011;-77
2021/06/02 14:07:00;;;;;;;1.05;0.80;;;28.30;45.30;;;;;;6279567;22;20035;-78
2021/06/02 14:09:26;;;;;;;0.63;0.63;;;28.30;45.20;;;;;;6308664;22;20026;-79
2021/06/02 14:11:52;;;;;;;1.00;0.65;;;28.30;45.20;;;;;;6280412;22;20458;-80
2021/06/02 14:14:21;;;;;;;0.60;0.60;;;28.40;45.20;;;;;;6253286;22;20034;-80
2021/06/02 14:16:52;;;;;;;0.70;0.70;;;28.30;45.10;;;;;;6273332;22;20000;-78
2021/06/02 14:19:21;;;;;;;0.60;0.60;;;28.30;45.20;;;;;;6305738;22;20018;-78